createdAt,value
2023-09-28T00:01:59.601Z,2.35
2023-09-28T00:07:26.325Z,2.23
2023-09-28T00:12:52.021Z,2.36
2023-09-28T00:18:17.276Z,2.19
2023-09-28T00:23:43.125Z,1.76
2023-09-28T00:29:09.119Z,2.01
2023-09-28T00:34:32.279Z,1.91
2023-09-28T00:39:55.830Z,2.31
2023-09-28T00:45:20.745Z,2.15
2023-09-28T00:50:40.742Z,2.31
2023-09-28T00:56:02.761Z,1.94
2023-09-28T01:01:27.627Z,1.63
2023-09-28T01:06:52.502Z,1.83
2023-09-28T01:12:16.000Z,1.63
2023-09-28T01:17:41.723Z,1.54
2023-09-28T01:23:06.915Z,1.71
2023-09-28T01:28:24.437Z,1.95
2023-09-28T01:34:09.069Z,1.86
2023-09-28T01:39:33.960Z,2.08
2023-09-28T01:44:59.844Z,2.23
2023-09-28T01:50:22.241Z,2.28
2023-09-28T01:55:46.670Z,2.04
2023-09-28T02:01:05.765Z,2.53
2023-09-28T02:06:38.974Z,2.38
2023-09-28T02:12:04.200Z,2.73
2023-09-28T02:17:29.587Z,2.50
2023-09-28T02:22:55.319Z,2.38
2023-09-28T02:28:21.187Z,2.23
2023-09-28T02:34:06.869Z,2.72
2023-09-28T02:39:31.037Z,2.52
2023-09-28T02:44:57.385Z,2.27
2023-09-28T02:50:24.398Z,2.32
2023-09-28T02:55:50.536Z,2.58
2023-09-28T03:01:15.216Z,2.33
2023-09-28T03:06:40.829Z,2.79
2023-09-28T03:12:06.686Z,2.54
2023-09-28T03:17:32.231Z,2.10
2023-09-28T03:22:57.573Z,2.16
2023-09-28T03:28:23.445Z,2.33
2023-09-28T03:33:50.999Z,2.33
2023-09-28T03:39:13.989Z,2.03
2023-09-28T03:44:40.497Z,2.54
2023-09-28T03:50:00.394Z,2.04
2023-09-28T03:55:27.406Z,2.26
2023-09-28T04:00:53.612Z,2.74
2023-09-28T04:06:18.978Z,2.15
2023-09-28T04:11:41.674Z,2.17
2023-09-28T04:17:04.186Z,3.07
2023-09-28T04:22:28.812Z,2.39
2023-09-28T04:27:52.188Z,2.44
2023-09-28T04:33:18.143Z,2.33
2023-09-28T04:38:43.790Z,2.35
2023-09-28T04:44:08.582Z,2.37
2023-09-28T04:49:33.447Z,2.53
2023-09-28T04:54:58.438Z,2.37
2023-09-28T05:00:20.323Z,2.22
2023-09-28T05:05:46.227Z,2.60
2023-09-28T05:11:09.519Z,2.55
2023-09-28T05:16:33.244Z,2.70
2023-09-28T05:21:58.736Z,2.73
2023-09-28T05:27:22.030Z,2.54
2023-09-28T05:32:44.632Z,2.52
2023-09-28T05:38:10.393Z,2.42
2023-09-28T05:43:35.577Z,2.38
2023-09-28T05:49:00.716Z,2.74
2023-09-28T05:54:22.906Z,2.69
2023-09-28T05:59:48.711Z,2.81
2023-09-28T06:05:14.632Z,3.07
2023-09-28T06:10:38.803Z,2.86
2023-09-28T06:16:04.891Z,2.43
2023-09-28T06:21:29.712Z,2.79
2023-09-28T06:26:55.482Z,2.81
2023-09-28T06:32:22.366Z,2.85
2023-09-28T06:37:45.330Z,2.54
2023-09-28T06:43:11.599Z,2.31
2023-09-28T06:48:30.881Z,2.15
2023-09-28T06:53:53.868Z,1.64
2023-09-28T06:59:19.920Z,2.21
2023-09-28T07:04:45.997Z,1.80
2023-09-28T07:10:11.172Z,1.74
2023-09-28T07:15:30.847Z,1.79
2023-09-28T07:20:55.908Z,1.66
2023-09-28T07:26:21.743Z,1.69
2023-09-28T07:31:46.512Z,1.92
2023-09-28T07:37:11.508Z,1.62
2023-09-28T07:42:37.756Z,1.73
2023-09-28T07:48:00.641Z,1.61
2023-09-28T07:53:22.181Z,1.63
2023-09-28T07:58:46.416Z,1.65
2023-09-28T08:04:09.575Z,1.29
2023-09-28T08:09:35.525Z,1.37
2023-09-28T08:15:01.159Z,1.25
2023-09-28T08:20:28.800Z,1.57
2023-09-28T08:25:54.447Z,1.44
2023-09-28T08:31:20.264Z,1.30
2023-09-28T08:36:45.171Z,1.27
2023-09-28T08:42:10.285Z,1.71
2023-09-28T08:47:36.120Z,1.54
2023-09-28T08:53:02.012Z,1.36
2023-09-28T08:58:27.106Z,1.36
2023-09-28T09:03:49.665Z,1.51
2023-09-28T09:09:13.182Z,1.47
2023-09-28T09:14:33.309Z,1.21
2023-09-28T09:19:59.384Z,1.43
2023-09-28T09:25:20.925Z,1.21
2023-09-28T09:30:46.450Z,1.66
2023-09-28T09:36:12.648Z,1.39
2023-09-28T09:41:38.425Z,1.27
2023-09-28T09:47:01.126Z,1.38
2023-09-28T09:52:25.980Z,1.37
2023-09-28T09:57:51.447Z,1.29
2023-09-28T10:03:16.701Z,1.28
2023-09-28T10:08:42.358Z,1.40
2023-09-28T10:14:03.390Z,1.33
2023-09-28T10:19:29.454Z,1.41
2023-09-28T10:24:55.338Z,1.39
2023-09-28T10:30:21.874Z,1.27
2023-09-28T10:35:42.136Z,1.43
2023-09-28T10:41:08.023Z,1.31
2023-09-28T10:46:56.440Z,1.30
2023-09-28T10:52:21.206Z,1.25
2023-09-28T10:57:39.701Z,1.15
2023-09-28T11:03:05.322Z,1.19
2023-09-28T11:08:30.634Z,1.29
2023-09-28T11:13:57.504Z,1.20
2023-09-28T11:19:20.560Z,1.29
2023-09-28T11:25:10.587Z,1.28
2023-09-28T11:30:35.096Z,1.45
2023-09-28T11:36:00.519Z,1.18
2023-09-28T11:41:26.843Z,1.31
2023-09-28T11:46:52.811Z,1.20
2023-09-28T11:52:18.443Z,1.06
2023-09-28T11:58:04.156Z,0.96
2023-09-28T12:03:24.536Z,1.62
2023-09-28T12:08:47.890Z,1.33
2023-09-28T12:14:12.446Z,1.25
2023-09-28T12:19:38.666Z,1.04
2023-09-28T12:25:03.135Z,1.16
2023-09-28T12:30:29.169Z,1.58
2023-09-28T12:35:53.403Z,1.26
2023-09-28T12:41:19.868Z,1.17
2023-09-28T12:46:45.497Z,1.05
2023-09-28T12:52:30.409Z,1.08
2023-09-28T12:57:54.879Z,1.10
2023-09-28T13:03:20.706Z,1.05
2023-09-28T13:08:47.283Z,0.80
2023-09-28T13:14:06.749Z,1.19
2023-09-28T13:19:32.366Z,1.12
2023-09-28T13:24:57.463Z,1.17
2023-09-28T13:30:23.446Z,1.14
2023-09-28T13:35:43.272Z,1.01
2023-09-28T13:41:14.277Z,1.04
2023-09-28T13:46:33.630Z,1.12
2023-09-28T13:51:59.667Z,1.11
2023-09-28T13:57:26.047Z,1.03
2023-09-28T14:03:10.856Z,1.03
2023-09-28T14:08:35.361Z,0.95
2023-09-28T14:14:01.143Z,1.11
2023-09-28T14:19:27.384Z,1.04
2023-09-28T14:24:47.661Z,1.27
2023-09-28T14:30:13.391Z,0.95
2023-09-28T14:35:53.943Z,1.21
2023-09-28T14:41:18.490Z,1.05
2023-09-28T14:46:45.756Z,1.04
2023-09-28T14:52:10.973Z,1.24
2023-09-28T14:57:37.043Z,1.12
2023-09-28T15:03:03.233Z,1.23
2023-09-28T15:08:28.271Z,1.15
2023-09-28T15:13:53.902Z,0.98
2023-09-28T15:19:12.950Z,0.80
2023-09-28T15:24:37.998Z,1.12
2023-09-28T15:30:02.440Z,0.89
2023-09-28T15:35:30.411Z,1.00
2023-09-28T15:40:56.101Z,1.05
2023-09-28T15:46:21.895Z,1.26
2023-09-28T15:51:46.721Z,1.00
2023-09-28T15:57:12.142Z,0.74
2023-09-28T16:02:37.400Z,1.02
2023-09-28T16:08:03.536Z,1.31
2023-09-28T16:13:29.230Z,1.20
2023-09-28T16:18:55.812Z,1.50
2023-09-28T16:24:38.882Z,1.19
2023-09-28T16:30:03.347Z,0.84
2023-09-28T16:35:25.709Z,1.09
2023-09-28T16:40:50.417Z,0.94
2023-09-28T16:46:16.268Z,0.93
2023-09-28T16:51:40.357Z,1.10
2023-09-28T16:57:05.904Z,1.26
2023-09-28T17:02:31.352Z,1.10
2023-09-28T17:07:57.400Z,1.19
2023-09-28T17:13:25.015Z,1.15
2023-09-28T17:18:50.585Z,1.06
2023-09-28T17:24:15.475Z,1.06
2023-09-28T17:29:40.884Z,1.19
2023-09-28T17:35:04.325Z,1.07
2023-09-28T17:40:30.681Z,1.26
2023-09-28T17:45:53.376Z,1.07
2023-09-28T17:51:41.409Z,1.15
2023-09-28T17:57:05.200Z,1.41
2023-09-28T18:03:15.074Z,1.55
2023-09-28T18:08:38.833Z,1.07
2023-09-28T18:14:04.817Z,1.20
2023-09-28T18:19:24.266Z,1.26
2023-09-28T18:24:49.067Z,1.19
2023-09-28T18:30:28.105Z,1.28
2023-09-28T18:35:51.771Z,1.00
2023-09-28T18:41:17.110Z,1.01
2023-09-28T18:46:40.623Z,1.15
2023-09-28T18:52:29.260Z,1.29
2023-09-28T18:57:51.239Z,1.30
2023-09-28T19:03:14.344Z,1.19
2023-09-28T19:08:39.983Z,1.33
2023-09-28T19:14:02.750Z,1.06
2023-09-28T19:19:28.480Z,1.09
2023-09-28T19:24:54.243Z,1.23
2023-09-28T19:30:21.672Z,1.26
2023-09-28T19:35:47.351Z,1.19
2023-09-28T19:41:12.390Z,1.52
2023-09-28T19:46:40.901Z,1.63
2023-09-28T19:52:06.465Z,1.64
2023-09-28T19:57:25.676Z,1.74
2023-09-28T20:02:49.311Z,1.83
2023-09-28T20:08:14.744Z,1.72
2023-09-28T20:13:40.155Z,1.87
2023-09-28T20:19:04.863Z,1.64
2023-09-28T20:24:46.786Z,1.41
2023-09-28T20:30:10.950Z,1.15
2023-09-28T20:35:36.382Z,1.34
2023-09-28T20:41:30.813Z,1.25
2023-09-28T20:46:55.373Z,1.36
2023-09-28T20:52:19.948Z,1.27
2023-09-28T20:57:44.733Z,1.30
2023-09-28T21:03:10.126Z,0.93
2023-09-28T21:08:34.610Z,0.92
2023-09-28T21:13:59.865Z,1.16
2023-09-28T21:19:24.360Z,0.99
2023-09-28T21:24:50.401Z,1.07
2023-09-28T21:30:16.362Z,1.10
2023-09-28T21:35:41.520Z,1.36
2023-09-28T21:41:09.775Z,1.20
2023-09-28T21:46:27.099Z,1.28
2023-09-28T21:51:52.449Z,1.15
2023-09-28T21:57:32.315Z,1.26
2023-09-28T22:02:57.656Z,1.34
2023-09-28T22:08:39.588Z,1.02
2023-09-28T22:14:03.611Z,1.13
2023-09-28T22:19:28.639Z,1.19
2023-09-28T22:24:49.228Z,1.19
2023-09-28T22:30:14.498Z,1.19
2023-09-28T22:35:40.680Z,1.12
2023-09-28T22:41:06.269Z,1.21
2023-09-28T22:46:34.802Z,1.19
2023-09-28T22:52:01.157Z,1.17
2023-09-28T22:57:25.710Z,1.34
2023-09-28T23:02:51.162Z,1.16
2023-09-28T23:08:17.165Z,1.32
2023-09-28T23:13:42.170Z,1.12
2023-09-28T23:19:07.705Z,1.82
2023-09-28T23:24:33.362Z,1.23
2023-09-28T23:29:58.617Z,1.30
2023-09-28T23:35:21.661Z,1.28
2023-09-28T23:40:46.073Z,1.06
2023-09-28T23:46:10.898Z,1.37
2023-09-28T23:51:55.435Z,1.36
2023-09-28T23:57:40.676Z,1.37
